This is the latest recevied weather packets stored in our database for station/object LU3GHF-13. If no packets are shown the sender has not sent any weather packets the latest 10 day(s).
| Time | Temp. | Humidity | Pressure | Rain* | Wind** | Luminosity | Snow |
|---|---|---|---|---|---|---|---|
| 1788383018 | 26.11° C | 68% | 1005.7 hPa | - | - | - | - |
| 1788382403 | 26.67° C | 67% | 1005.8 hPa | - | - | - | - |
| 1788381751 | 26.11° C | 67% | 1005.9 hPa | - | - | - | - |
| 1788381119 | 26.67° C | 66% | 1005.9 hPa | - | - | - | - |
| 1788380475 | 27.78° C | 63% | 1005.9 hPa | - | - | - | - |
| 1788379840 | 28.33° C | 61% | 1005.8 hPa | - | - | - | - |
| 1788379219 | 29.44° C | 59% | 1005.8 hPa | - | - | - | - |
| 1788378549 | 29.44° C | 60% | 1005.9 hPa | - | - | - | - |
| 1788377924 | 29.44° C | 59% | 1005.9 hPa | - | - | - | - |
| 1788377287 | 28.89° C | 59% | 1006.1 hPa | - | - | - | - |
| 1788376647 | 28.89° C | 59% | 1006.1 hPa | - | - | - | - |
| 1788375990 | 29.44° C | 57% | 1006.2 hPa | - | - | - | - |
| 1788375379 | 29.44° C | 59% | 1006.3 hPa | - | - | - | - |
| 1788374759 | 28.89° C | 59% | 1006.4 hPa | - | - | - | - |
| 1788374157 | 30° C | 56% | 1006.4 hPa | - | - | - | - |
| 1788373546 | 28.89° C | 58% | 1006.8 hPa | - | - | - | - |
| 1788372908 | 28.33° C | 60% | 1007 hPa | - | - | - | - |
| 1788372296 | 27.78° C | 60% | 1007.2 hPa | - | - | - | - |
| 1788371660 | 28.89° C | 59% | 1007.4 hPa | - | - | - | - |
| 1788371006 | 28.33° C | 61% | 1007.6 hPa | - | - | - | - |
| 1788370358 | 28.33° C | 57% | 1007.9 hPa | - | - | - | - |
| 1788369713 | 28.33° C | 60% | 1008.1 hPa | - | - | - | - |
| 1788369091 | 27.78° C | 60% | 1008.4 hPa | - | - | - | - |
| 1788368450 | 27.78° C | 60% | 1008.6 hPa | - | - | - | - |
| 1788367797 | 27.78° C | 61% | 1008.7 hPa | - | - | - | - |
* Rain since midnight (hover to see other rain measurements)
** Current wind speed in m/s (hover to see current wind gust speed)